Timeline UpdatesTrip UpdatesNews PostsPvt PostsTravel TipsAdmin PostsConv PostsFollowed PostsChat RequestsBlog PostsPNR Posts

Disclaimer
Search
 
 
Wed Sep 3, 2014 02:56:08 ISTHomeTrainsΣChainsAtlasPNRForumGalleryNewsFAQTripsMembersLoginFeedback
No Recent News for this Train
Other Trains in the News **new
Latest...
Monsoon TT Updated W.e.f. 1st July to 30th Sept. 2014
Mon Jun 30, 2014 (04:23PM)
⇐ Return Journey: Train# 16336

16335/Gandhidham Nagercoil Weekly Express

NO Time-Table Change.
Sep 01 (3:17PM)
Change Departure Station:
Change Arrival Station:
Post a Train Travel TipPost a Train Travel Tip **new
Post a Comment/Question/Picture/VideoPost a Comment/Question/Picture/Video
Pantry/Catering
✓ Pantry Car Avbl
✓ Catering Avbl
RSA - Rake Sharing
06309/06310/16335/16336 has RSA.
Rake/Coach Composition
LOCO-SLR-GEN-GEN-B1-B2-A1-S12-S11-S10-S9-S8-S7-PC-S6-S5-S4-S3-S2-S1-GEN-LD-SLR; As seen at Ahmedabad on 22 Apr
Loco
ERS WDM3A from GIMB to SRR and WAP4 RPM/ED from SRR...
Read more...
to NCJ
News    PNR    Forum    Time-Table    Availability    Fare Chart    Map    Arr/Dep History    Trips    Gallery    ΣChains    X/O    Timeline    
Travel Time: 1h 20m    0 halts    Distance: 71 km    Avg Speed: 53 km/hr
Type: Mail/Express
Zone: SR/Southern
Departs @ 05:25
Platform# 3
S      
Trivandrum Central/TVC 
Arrives @ 06:45
Platform# 23
S      
Nagercoil Junction/NCJ 

0 halts. 12 intermediate Stations between Trivandrum Central and Nagercoil Junction

Show ALL intermediate Stations  

#CodeStation NameX/OArrivesAvgDepartsAvgHaltPFDay#KmSpeedElevZoneAddress
1GIMBGandhidham Junction (3)  -05:30-31-2275.57312mWRGandhidham, Gujarat
2BCOBBhachau (3)  06:01-06:03-2m21-2237.73544mWRBhachau, Gujarat
3SIOBSamakhiali Junction (3)  06:30-06:32-2m21-2221.76242mWRSamakhiali, Gujarat
4MALBMaliya Miyana Junction (2)  07:10-07:12-2m--1-2182.5726mWRMalia, Gujarat
5DHGDhrangadhra Junction (3)  08:16-08:18-2m--1-2105.64154mWRDhrangadhra, Gujarat
6VGViramgam Junction (5)  09:52-09:54-2m21-2041.05529mWRViramgam, Gujarat
7ADIAhmedabad Junction (12)  11:05-11:25-20m51-1975.56551mWRAhmedabad, Gujarat
8NDNadiad Junction (4)X  12:07-12:09-2m11-1930.06237mWRNadiad, Gujarat
9ANNDAnand Junction (6)X  12:27-12:29-2m11-1911.55244mWRAnand, Gujarat
10BRCVadodara Junction (7)X  13:10-13:12-2m11-1875.77036mWRVadodara 390005, Gujarat
11AKVAnkleshwar Junction (4)X  14:20-14:22-2m21-1795.94219mWRAnkleshwar, Gujarat
12STSurat (4)X  15:33-15:35-2m21-1745.95819mWRSurat 395001, Gujarat
13BLValsad (3)X  16:46-16:48-2m31-1677.26615mWRValsad, Gujarat
14VAPIVapi (3)X17:12-17:14-2m--1-1651.04127mWRVapi, Gujarat
15BORBoisar (3)X18:57-18:59-2m--1-1580.83517mWRBoisar Tel.no-02525-266626, Maharashtra
16BSRVasai Road (7)  20:25-20:30-5m71-1529.9457mWRVasai 401202, Maharashtra
17BIRDBhiwandi Road (4)  21:06-21:08-2m11-1502.64526mCRBhiwandi, Maharashtra
18PNVLPanvel Junction (7)  22:00-22:05-5m71-1463.55310mCRPanvel, Maharashtra
19CHIChiplun (2)  01:56-01:58-2m22-1259.84712mKRChiplun, Maharashtra
20RNRatnagiri (3)  03:35-03:40-5m12-1184.457129mKRRatnagiri 415612, Maharashtra
21SWVSawantwadi Road (2)  06:30-06:32-2m12-1023.92740mKRDist. Sindhudurg, Maharashtra
22MAOMadgaon Junction (3)  09:20-09:30-10m12-949.56811mKRMadgaon 403601, Goa
23CNOCanacona (1)X  10:00-10:02-2m12-915.34929mKRPh:-0832-2643644., Goa
24KAWRKarwar (2)  10:35-10:37-2m--2-888.25214mKRKarwar, Karnataka
25KTKumta (2)  11:40-11:42-2m--2-833.16020mKRKumta - 581362, Karnataka
26MRDWMurdeshwar (2)  12:22-12:24-2m--2-793.15628mKRMurudeshwara - 581350, Karnataka
27BYNRByndoor Mookambika Road (1)  12:56-12:58-2m12-763.27210mKRUdupi Dist. 576214, Karnataka
28KUDAKundapura (2)  13:26-13:28-2m12-729.65613mKRKundapura - 576211, Karnataka
29UDUdupi (2)X  14:02-14:04-2m12-697.65218mKRUdupi, Karnataka
30SLSurathkal (1)  14:52-14:54-2m12-655.81922mKRSurathkal, Karnataka
31MAJNMangalore Junction (3)  16:00-16:10-10m222-635.25124mSRMangalore 575001, Karnataka
32KGQKasaragod (3)  17:08-17:10-2m--2-586.27318mSRTel: 04994 220800, Kerala
33PAYPayyanur (3)  17:53-17:55-2m--2-533.8770mSRKannur District, Kerala
34KPQKannapuram (2)XO  18:10-18:12-2m22-514.6269mSRKannur District, Kerala
35CANKannur Main (4)X  18:45-18:50-5m32-500.16914mSRKannur Tel: 0497 2705555, Kerala
36TLYThalassery (2)  19:08-19:10-2m--2-479.4669mSRKannur, Kerala
37BDJVadakara (2)X  19:30-19:32-2m12-457.38211mSRCalicut / Station Ph No : 0496-2524254, Kerala
38QLDKoyilandy (3)  19:48-19:50-2m--2-435.44211mSRQuilandi, Kerala
39CLTKozhikode Main (4)  20:25-20:30-5m--2-411.14611mSRCalicut Tel: 0495 2701234, Kerala
40FKFerok (2)  20:43-20:45-2m--2-401.17019mSRFeroke, Kerala
41PGIParappangadi (2)  20:58-21:00-2m--2-385.95419mSRParappanangadi, Kerala
42TIRTirur (3)  21:18-21:20-2m--2-369.8509mSRTel: 0494 2422240, Kerala
43KTUKuttippuram (2)  21:38-21:40-2m--2-354.88517mSRKuttippuram, Kerala
44PTBPattambi (2)X  21:53-21:55-2m--2-336.31321mSRPattambi, Kerala
45SRRShoranur Junction (7)O  22:50-23:00-10m--2-324.86626mSRShoranur ph.no 0466-2222913, Kerala
46TCRThrissur (4)X  23:30-23:33-3m12-291.8706mSRThrissur Tel: 0487 2423150, Kerala
47AWYAluva (3)X  00:20-00:22-2m13-237.23612mSRPh: 0484-2624141, Kerala
48ERNErnakulam Town (North) (2)  00:50-00:55-5m23-220.4559mSRTel: 0484 2395198, Kerala
49KTYMKottayam (3)  02:00-02:05-5m13-160.46215mSRTel: 0481 2563535, Kerala
50TRVLTiruvalla (2)  02:30-02:32-2m23-134.76027mSRPh: 0469-2601314, Kerala
51CNGRChengannur (3)  02:41-02:43-2m13-125.6516mSRPh: 0479-2452340, Kerala
52QLNKollam Junction (6)  03:55-04:00-5m13-64.67816mSRKollam 0474-2746194, Kerala
53TVPThiruvananthapuram Pettah (2)  04:48-04:50-2m13-2.4518mSRTrivandrum Ph: 04712470181, Kerala
54TVC»Trivandrum Central (5)»  05:20-05:25-5m330.05312mSRThiruvananthapuram 695001, Kerala
55NCJ•Nagercoil Junction (4)•  06:45--23371.1-22mSRNagercoil-629002, Tamil Nadu
Scroll to Top
Scroll to Bottom